createdAt,value
2017-05-18T00:00:57.977Z,82.48
2017-05-18T00:02:07.197Z,82.38
2017-05-18T00:03:16.245Z,82.67
2017-05-18T00:04:26.139Z,82.57
2017-05-18T00:05:36.025Z,82.76
2017-05-18T00:06:45.585Z,82.76
2017-05-18T00:07:54.483Z,82.57
2017-05-18T00:09:03.908Z,83.15
2017-05-18T00:10:13.455Z,83.44
2017-05-18T00:11:22.674Z,83.34
2017-05-18T00:12:31.570Z,83.25
2017-05-18T00:13:40.476Z,82.86
2017-05-18T00:14:49.706Z,83.25
2017-05-18T00:15:59.579Z,82.67
2017-05-18T00:17:08.476Z,82.76
2017-05-18T00:18:18.022Z,83.83
2017-05-18T00:19:28.280Z,83.34
2017-05-18T00:20:38.085Z,82.92
2017-05-18T00:21:47.308Z,82.76
2017-05-18T00:22:56.539Z,82.96
2017-05-18T00:24:05.758Z,83.15
2017-05-18T00:25:14.652Z,82.73
2017-05-18T00:26:23.599Z,83.83
2017-05-18T00:27:32.496Z,83.44
2017-05-18T00:28:41.717Z,83.49
2017-05-18T00:29:51.262Z,83.49
2017-05-18T00:31:00.483Z,83.87
2017-05-18T00:32:09.485Z,83.78
2017-05-18T00:33:18.703Z,84.07
2017-05-18T00:34:27.925Z,83.4
2017-05-18T00:35:37.473Z,84.07
2017-05-18T00:36:46.697Z,83.87
2017-05-18T00:37:56.399Z,83.59
2017-05-18T00:39:05.946Z,83.69
2017-05-18T00:40:15.162Z,83.87
2017-05-18T00:41:24.055Z,84.17
2017-05-18T00:42:32.951Z,83.87
2017-05-18T00:43:42.599Z,84.07
2017-05-18T00:44:51.502Z,84.07
2017-05-18T00:46:01.049Z,84.07
2017-05-18T00:47:10.265Z,84.17
2017-05-18T00:48:19.158Z,84.45
2017-05-18T00:49:28.485Z,84.26
2017-05-18T00:50:37.705Z,84.45
2017-05-18T00:51:46.602Z,84.45
2017-05-18T00:52:55.497Z,84.74
2017-05-18T00:54:04.716Z,84.36
2017-05-18T00:55:14.417Z,84.74
2017-05-18T00:56:23.313Z,84.94
2017-05-18T00:57:32.854Z,84.74
2017-05-18T00:58:42.732Z,84.94
2017-05-18T00:59:51.956Z,84.84
2017-05-18T01:01:01.224Z,85.13
2017-05-18T01:02:10.446Z,85.03
2017-05-18T01:03:19.994Z,84.94
2017-05-18T01:04:29.554Z,84.74
2017-05-18T01:05:38.772Z,85.03
2017-05-18T01:06:48.097Z,85.22
2017-05-18T01:07:57.318Z,84.7
2017-05-18T01:09:07.188Z,85.28
2017-05-18T01:10:16.427Z,85.8
2017-05-18T01:11:25.322Z,85.28
2017-05-18T01:12:34.264Z,85.41
2017-05-18T01:13:43.167Z,85.28
2017-05-18T01:14:53.041Z,85.03
2017-05-18T01:16:02.592Z,85.51
2017-05-18T01:17:11.491Z,85.13
2017-05-18T01:18:20.437Z,85.32
2017-05-18T01:19:29.664Z,85.37
2017-05-18T01:20:39.213Z,85.61
2017-05-18T01:21:48.108Z,85.08
2017-05-18T01:22:57.008Z,85.66
2017-05-18T01:24:06.057Z,85.47
2017-05-18T01:25:15.279Z,85.57
2017-05-18T01:26:24.493Z,85.66
2017-05-18T01:27:33.717Z,85.28
2017-05-18T01:28:43.262Z,85.75
2017-05-18T01:29:52.628Z,85.95
2017-05-18T01:31:02.174Z,86.05
2017-05-18T01:32:11.070Z,85.95
2017-05-18T01:33:20.293Z,86.05
2017-05-18T01:34:29.190Z,85.66
2017-05-18T01:35:38.463Z,86.05
2017-05-18T01:36:47.358Z,85.66
2017-05-18T01:37:56.582Z,85.57
2017-05-18T01:39:05.802Z,85.85
2017-05-18T01:40:15.348Z,85.28
2017-05-18T01:41:24.389Z,85.75
2017-05-18T01:42:33.293Z,85.95
2017-05-18T01:43:42.191Z,85.95
2017-05-18T01:44:51.742Z,85.95
2017-05-18T01:46:01.942Z,85.95
2017-05-18T01:47:11.138Z,85.85
2017-05-18T01:48:20.035Z,86.43
2017-05-18T01:49:28.928Z,85.85
2017-05-18T01:50:38.152Z,86.62
2017-05-18T01:51:47.694Z,85.85
2017-05-18T01:52:57.288Z,86.05
2017-05-18T01:54:06.513Z,86.24
2017-05-18T01:55:15.407Z,85.85
2017-05-18T01:56:24.321Z,85.95
2017-05-18T01:57:33.214Z,86.24
2017-05-18T01:58:42.434Z,86.24
2017-05-18T01:59:51.657Z,86.24
2017-05-18T02:01:00.926Z,86.05
2017-05-18T02:02:10.147Z,86.62
2017-05-18T02:03:19.083Z,86.91
2017-05-18T02:04:28.779Z,86.81
2017-05-18T02:05:38.001Z,86.33
2017-05-18T02:06:46.898Z,87.01
2017-05-18T02:07:56.442Z,87.01
2017-05-18T02:09:06.318Z,87.1
2017-05-18T02:10:16.185Z,86.87
2017-05-18T02:11:25.085Z,87.15
2017-05-18T02:12:34.950Z,87.15
2017-05-18T02:13:44.824Z,87.39
2017-05-18T02:14:54.041Z,87.44
2017-05-18T02:16:03.984Z,87.35
2017-05-18T02:17:13.210Z,87.54
2017-05-18T02:18:22.107Z,87.35
2017-05-18T02:19:31.327Z,87.54
2017-05-18T02:20:40.224Z,87.54
2017-05-18T02:21:49.495Z,87.73
2017-05-18T02:22:58.399Z,87.35
2017-05-18T02:24:07.957Z,87.35
2017-05-18T02:25:16.904Z,87.54
2017-05-18T02:26:25.801Z,88.11
2017-05-18T02:27:35.069Z,88.11
2017-05-18T02:28:44.618Z,87.92
2017-05-18T02:29:54.172Z,87.73
2017-05-18T02:31:03.398Z,88.21
2017-05-18T02:32:12.296Z,88.31
2017-05-18T02:33:22.144Z,88.31
2017-05-18T02:34:31.041Z,88.11
2017-05-18T02:35:39.939Z,87.92
2017-05-18T02:36:49.491Z,88.69
2017-05-18T02:37:58.711Z,88.11
2017-05-18T02:39:08.582Z,88.31
2017-05-18T02:40:17.806Z,88.31
2017-05-18T02:41:27.351Z,88.11
2017-05-18T02:42:36.250Z,88.21
2017-05-18T02:43:45.148Z,88.31
2017-05-18T02:44:54.520Z,88.49
2017-05-18T02:46:03.744Z,88.21
2017-05-18T02:47:12.635Z,88.11
2017-05-18T02:48:21.854Z,88.4
2017-05-18T02:49:31.076Z,88.4
2017-05-18T02:50:40.127Z,88.88
2017-05-18T02:51:49.028Z,88.88
2017-05-18T02:52:58.899Z,88.59
2017-05-18T02:54:08.121Z,88.79
2017-05-18T02:55:17.022Z,89.17
2017-05-18T02:56:26.542Z,89.17
2017-05-18T02:57:36.091Z,89.36
2017-05-18T02:58:45.642Z,89.46
2017-05-18T02:59:54.879Z,89.32
2017-05-18T03:01:04.428Z,89.26
2017-05-18T03:02:13.373Z,89.7
2017-05-18T03:03:22.589Z,89.75
2017-05-18T03:04:31.814Z,89.79
2017-05-18T03:05:41.044Z,89.84
2017-05-18T03:06:49.935Z,89.7
2017-05-18T03:07:59.458Z,89.7
2017-05-18T03:09:08.357Z,89.79
2017-05-18T03:10:17.914Z,89.89
2017-05-18T03:11:27.133Z,89.7
2017-05-18T03:12:36.679Z,90.28
2017-05-18T03:13:46.275Z,89.51
2017-05-18T03:14:55.558Z,90.47
2017-05-18T03:16:04.783Z,90.47
2017-05-18T03:17:14.015Z,90.56
2017-05-18T03:18:22.923Z,90.47
2017-05-18T03:19:32.732Z,90.47
2017-05-18T03:20:41.954Z,90.37
2017-05-18T03:21:50.852Z,90.66
2017-05-18T03:23:00.404Z,90.37
2017-05-18T03:24:09.952Z,90.56
2017-05-18T03:25:19.546Z,90.47
2017-05-18T03:26:28.438Z,91.14
2017-05-18T03:27:37.659Z,91.05
2017-05-18T03:28:46.880Z,91.05
2017-05-18T03:29:56.108Z,90.95
2017-05-18T03:31:05.483Z,91.05
2017-05-18T03:32:14.377Z,90.95
2017-05-18T03:33:23.598Z,91.52
2017-05-18T03:34:32.494Z,90.75
2017-05-18T03:35:41.712Z,90.95
2017-05-18T03:36:51.081Z,90.75
2017-05-18T03:37:59.973Z,91.42
2017-05-18T03:39:09.850Z,91.14
2017-05-18T03:40:19.077Z,91.42
2017-05-18T03:41:27.974Z,91.42
2017-05-18T03:42:36.927Z,91.24
2017-05-18T03:43:46.154Z,91.72
2017-05-18T03:44:55.702Z,91.14
2017-05-18T03:46:04.927Z,91.91
2017-05-18T03:47:14.154Z,91.52
2017-05-18T03:48:23.301Z,91.62
2017-05-18T03:49:33.173Z,91.72
2017-05-18T03:50:42.426Z,91.72
2017-05-18T03:51:51.972Z,91.91
2017-05-18T03:53:01.198Z,91.72
2017-05-18T03:54:10.403Z,91.91
2017-05-18T03:55:19.309Z,91.14
2017-05-18T03:56:28.208Z,91.81
2017-05-18T03:57:37.104Z,91.72
2017-05-18T03:58:47.305Z,92.1
2017-05-18T03:59:57.077Z,92.1
2017-05-18T04:01:06.302Z,91.91
2017-05-18T04:02:15.207Z,92.1
2017-05-18T04:03:24.430Z,92
2017-05-18T04:04:33.651Z,91.81
2017-05-18T04:05:43.023Z,92.1
2017-05-18T04:06:52.647Z,91.42
2017-05-18T04:08:01.868Z,92
2017-05-18T04:09:11.106Z,92.1
2017-05-18T04:10:20.330Z,91.91
2017-05-18T04:11:29.271Z,91.81
2017-05-18T04:12:38.820Z,92.1
2017-05-18T04:13:48.705Z,92.1
2017-05-18T04:14:58.574Z,92.48
2017-05-18T04:16:07.795Z,92.39
2017-05-18T04:17:16.693Z,92.29
2017-05-18T04:18:26.242Z,91.81
2017-05-18T04:19:35.790Z,92
2017-05-18T04:20:45.335Z,92.48
2017-05-18T04:21:54.934Z,92.77
2017-05-18T04:23:04.307Z,92.68
2017-05-18T04:24:13.851Z,92.19
2017-05-18T04:25:23.722Z,92.39
2017-05-18T04:26:32.622Z,92.29
2017-05-18T04:27:41.843Z,92.58
2017-05-18T04:28:51.214Z,92.39
2017-05-18T04:30:01.090Z,92.77
2017-05-18T04:31:09.987Z,92.39
2017-05-18T04:32:18.880Z,92.19
2017-05-18T04:33:28.101Z,92.39
2017-05-18T04:34:38.223Z,92.68
2017-05-18T04:35:47.774Z,92.48
2017-05-18T04:36:57.324Z,92.39
2017-05-18T04:38:06.552Z,92.39
2017-05-18T04:39:15.777Z,92.1
2017-05-18T04:40:24.974Z,92
2017-05-18T04:41:34.195Z,91.72
2017-05-18T04:42:43.455Z,91.91
2017-05-18T04:43:52.683Z,91.91
2017-05-18T04:45:01.576Z,91.24
2017-05-18T04:46:10.469Z,90.8
2017-05-18T04:47:19.692Z,91.28
2017-05-18T04:48:28.914Z,91.28
2017-05-18T04:49:37.807Z,91.28
2017-05-18T04:50:47.028Z,91.09
2017-05-18T04:51:56.402Z,91.47
2017-05-18T04:53:05.961Z,91.28
2017-05-18T04:54:14.853Z,90.7
2017-05-18T04:55:24.722Z,91.57
2017-05-18T04:56:33.621Z,90.9
2017-05-18T04:57:42.893Z,90.99
2017-05-18T04:58:52.114Z,90.99
2017-05-18T05:00:01.671Z,90.9
2017-05-18T05:01:10.951Z,90.52
2017-05-18T05:02:20.254Z,90.99
2017-05-18T05:03:29.631Z,90.9
2017-05-18T05:04:38.859Z,90.42
2017-05-18T05:05:48.094Z,90.61
2017-05-18T05:06:56.998Z,90.7
2017-05-18T05:08:06.547Z,90.9
2017-05-18T05:09:15.544Z,90.99
2017-05-18T05:10:25.090Z,90.42
2017-05-18T05:11:33.988Z,90.42
2017-05-18T05:12:42.886Z,89.84
2017-05-18T05:13:52.109Z,89.75
2017-05-18T05:15:01.807Z,89.75
2017-05-18T05:16:10.712Z,90.03
2017-05-18T05:17:19.935Z,89.55
2017-05-18T05:18:29.493Z,90.08
2017-05-18T05:19:38.717Z,90.08
2017-05-18T05:20:47.992Z,89.07
2017-05-18T05:21:56.891Z,89.02
2017-05-18T05:23:05.792Z,88.93
2017-05-18T05:24:14.690Z,89.12
2017-05-18T05:25:23.914Z,88.93
2017-05-18T05:26:33.135Z,88.83
2017-05-18T05:27:42.034Z,89.22
2017-05-18T05:28:51.584Z,89.02
2017-05-18T05:30:01.140Z,88.93
2017-05-18T05:31:10.377Z,88.35
2017-05-18T05:32:19.324Z,88.35
2017-05-18T05:33:28.547Z,88.45
2017-05-18T05:34:38.101Z,88.73
2017-05-18T05:35:47.655Z,88.25
2017-05-18T05:36:56.564Z,88.16
2017-05-18T05:38:05.933Z,87.68
2017-05-18T05:39:15.195Z,87.77
2017-05-18T05:40:24.744Z,88.64
2017-05-18T05:41:33.647Z,88.45
2017-05-18T05:42:42.558Z,87.96
2017-05-18T05:43:52.261Z,89.16
2017-05-18T05:45:01.487Z,88.35
2017-05-18T05:46:10.709Z,88.73
2017-05-18T05:47:19.934Z,88.87
2017-05-18T05:48:29.803Z,89.45
2017-05-18T05:49:38.852Z,89.26
2017-05-18T05:50:48.073Z,88.78
2017-05-18T05:51:57.300Z,88.87
2017-05-18T05:53:06.522Z,88.97
2017-05-18T05:54:15.422Z,88.3
2017-05-18T05:55:25.449Z,88.49
2017-05-18T05:56:34.350Z,88.49
2017-05-18T05:57:43.302Z,88.78
2017-05-18T05:58:52.846Z,88.49
2017-05-18T06:00:02.083Z,88.39
2017-05-18T06:01:11.305Z,88.1
2017-05-18T06:02:20.535Z,87.92
2017-05-18T06:03:29.760Z,87.96
2017-05-18T06:04:38.663Z,87.57
2017-05-18T06:05:47.884Z,87.29
2017-05-18T06:06:56.789Z,87.38
2017-05-18T06:08:06.342Z,87.09
2017-05-18T06:09:15.244Z,86.22
2017-05-18T06:10:25.179Z,86.42
2017-05-18T06:11:34.082Z,86.22
2017-05-18T06:12:43.630Z,85.84
2017-05-18T06:13:52.856Z,86.32
2017-05-18T06:15:02.085Z,85.55
2017-05-18T06:16:11.306Z,85.46
2017-05-18T06:17:20.537Z,85.75
2017-05-18T06:18:29.436Z,85.94
2017-05-18T06:19:38.987Z,86.32
2017-05-18T06:20:47.885Z,85.84
2017-05-18T06:21:56.783Z,86.22
2017-05-18T06:23:05.832Z,86.36
2017-05-18T06:24:15.057Z,85.94
2017-05-18T06:25:24.282Z,86.04
2017-05-18T06:26:33.184Z,85.4
2017-05-18T06:27:42.083Z,85.4
2017-05-18T06:28:51.688Z,85.21
2017-05-18T06:30:01.247Z,85.02
2017-05-18T06:31:10.523Z,85.21
2017-05-18T06:32:20.071Z,84.77
2017-05-18T06:33:28.972Z,84.1
2017-05-18T06:34:37.877Z,84.29
2017-05-18T06:35:47.099Z,84.1
2017-05-18T06:36:55.994Z,83.52
2017-05-18T06:38:04.899Z,83.52
2017-05-18T06:39:14.127Z,83.04
2017-05-18T06:40:23.677Z,84.19
2017-05-18T06:41:32.905Z,84.29
2017-05-18T06:42:42.285Z,83.81
2017-05-18T06:43:51.843Z,84.19
2017-05-18T06:45:01.077Z,83.62
2017-05-18T06:46:09.974Z,83.14
2017-05-18T06:47:18.877Z,81.5
2017-05-18T06:48:27.926Z,80.96
2017-05-18T06:49:36.829Z,79.61
2017-05-18T06:50:46.052Z,79.52
2017-05-18T06:51:54.957Z,78.94
2017-05-18T06:53:03.865Z,77.63
2017-05-18T06:54:13.485Z,78.02
2017-05-18T06:55:22.387Z,77.25
2017-05-18T06:56:31.294Z,76.86
2017-05-18T06:57:40.849Z,77.83
2017-05-18T06:58:50.726Z,76.86
2017-05-18T07:00:00.488Z,76.38
2017-05-18T07:01:10.037Z,77.15
2017-05-18T07:02:18.948Z,75.42
2017-05-18T07:03:28.214Z,75.74
2017-05-18T07:04:38.091Z,75.26
2017-05-18T07:05:47.150Z,74.78
2017-05-18T07:06:56.377Z,74.01
2017-05-18T07:08:05.618Z,73.33
2017-05-18T07:09:15.205Z,73.62
2017-05-18T07:10:24.441Z,73.24
2017-05-18T07:11:33.348Z,74.33
2017-05-18T07:12:42.257Z,73.66
2017-05-18T07:13:51.809Z,72.85
2017-05-18T07:15:01.096Z,71.44
2017-05-18T07:16:10.326Z,71.73
2017-05-18T07:17:19.635Z,72.79
2017-05-18T07:18:28.862Z,72.5
2017-05-18T07:19:38.417Z,71.83
2017-05-18T07:20:47.645Z,72.02
2017-05-18T07:21:56.543Z,71.54
2017-05-18T07:23:05.878Z,71
2017-05-18T07:24:15.100Z,71.77
2017-05-18T07:25:23.996Z,71.09
2017-05-18T07:26:33.220Z,71.09
2017-05-18T07:27:42.776Z,70.8
2017-05-18T07:28:52.331Z,70.9
2017-05-18T07:30:01.560Z,69.93
2017-05-18T07:31:10.465Z,68.97
2017-05-18T07:32:19.368Z,69.93
2017-05-18T07:33:28.921Z,69.49
2017-05-18T07:34:38.583Z,69.2
2017-05-18T07:35:47.810Z,68.23
2017-05-18T07:36:57.033Z,69
2017-05-18T07:38:06.906Z,68.81
2017-05-18T07:39:16.458Z,68.43
2017-05-18T07:40:26.214Z,68.52
2017-05-18T07:41:35.117Z,68.62
2017-05-18T07:42:44.665Z,69.29
2017-05-18T07:43:54.220Z,68.62
2017-05-18T07:45:03.445Z,67.65
2017-05-18T07:46:12.398Z,68.26
2017-05-18T07:47:21.303Z,68.62
2017-05-18T07:48:30.202Z,67.88
2017-05-18T07:49:39.100Z,67.69
2017-05-18T07:50:48.329Z,67.49
2017-05-18T07:51:57.382Z,67.88
2017-05-18T07:53:06.293Z,67.97
2017-05-18T07:54:15.198Z,66.91
2017-05-18T07:55:24.752Z,66.91
2017-05-18T07:56:33.651Z,67.01
2017-05-18T07:57:43.588Z,67.59
2017-05-18T07:58:52.813Z,67.3
2017-05-18T08:00:02.365Z,67.49
2017-05-18T08:01:11.592Z,67.88
2017-05-18T08:02:20.497Z,67.2
2017-05-18T08:03:29.831Z,67.3
2017-05-18T08:04:39.060Z,66.72
2017-05-18T08:05:48.614Z,66.63
2017-05-18T08:06:57.514Z,66.63
2017-05-18T08:08:07.400Z,67.3
2017-05-18T08:09:16.404Z,67.01
2017-05-18T08:10:25.308Z,66.85
2017-05-18T08:11:34.223Z,66.85
2017-05-18T08:12:43.130Z,67.3
2017-05-18T08:13:52.353Z,67.4
2017-05-18T08:15:02.106Z,67.4
2017-05-18T08:16:11.024Z,66.91
2017-05-18T08:17:20.256Z,67.3
2017-05-18T08:18:29.812Z,67.01
2017-05-18T08:19:39.362Z,67.04
2017-05-18T08:20:49.111Z,66.94
2017-05-18T08:21:58.339Z,67.49
2017-05-18T08:23:07.242Z,66.82
2017-05-18T08:24:16.148Z,67.33
2017-05-18T08:25:25.700Z,68.01
2017-05-18T08:26:34.902Z,67.82
2017-05-18T08:27:43.815Z,66.85
2017-05-18T08:28:53.047Z,66.36
2017-05-18T08:30:02.276Z,67.04
2017-05-18T08:31:11.178Z,66.94
2017-05-18T08:32:20.654Z,66.46
2017-05-18T08:33:29.881Z,66.75
2017-05-18T08:34:39.429Z,66.27
2017-05-18T08:35:48.655Z,66.94
2017-05-18T08:36:58.212Z,67.43
2017-05-18T08:38:07.366Z,66.75
2017-05-18T08:39:16.277Z,66.36
2017-05-18T08:40:25.514Z,66.69
2017-05-18T08:41:34.415Z,67.85
2017-05-18T08:42:44.293Z,67.46
2017-05-18T08:43:54.326Z,65.92
2017-05-18T08:45:03.883Z,65.34
2017-05-18T08:46:13.435Z,65.43
2017-05-18T08:47:22.666Z,65.63
2017-05-18T08:48:31.893Z,64.76
2017-05-18T08:49:41.272Z,64.89
2017-05-18T08:50:50.501Z,64.5
2017-05-18T08:51:59.727Z,64.59
2017-05-18T08:53:08.628Z,64.69
2017-05-18T08:54:17.852Z,65.37
2017-05-18T08:55:27.280Z,65.17
2017-05-18T08:56:36.831Z,64.5
2017-05-18T08:57:45.737Z,64.43
2017-05-18T08:58:54.967Z,64.14
2017-05-18T09:00:04.194Z,63.76
2017-05-18T09:01:13.672Z,63.18
2017-05-18T09:02:22.902Z,62.69
2017-05-18T09:03:32.135Z,62.53
2017-05-18T09:04:42.016Z,61.76
2017-05-18T09:05:51.572Z,61.95
2017-05-18T09:07:00.678Z,62.24
2017-05-18T09:08:09.907Z,61.18
2017-05-18T09:09:19.134Z,62.24
2017-05-18T09:10:29.017Z,61.18
2017-05-18T09:11:38.254Z,61.08
2017-05-18T09:12:47.486Z,60.3
2017-05-18T09:13:57.045Z,60.88
2017-05-18T09:15:06.602Z,60.33
2017-05-18T09:16:16.156Z,60.5
2017-05-18T09:17:25.386Z,60.5
2017-05-18T09:18:34.613Z,61.18
2017-05-18T09:19:44.176Z,61.56
2017-05-18T09:20:53.075Z,60.5
2017-05-18T09:22:01.980Z,61.33
2017-05-18T09:23:10.886Z,61.53
2017-05-18T09:24:20.361Z,61.33
2017-05-18T09:25:30.244Z,60.66
2017-05-18T09:26:39.148Z,61.18
2017-05-18T09:27:49.033Z,60.47
2017-05-18T09:28:58.596Z,60.78
2017-05-18T09:30:07.648Z,60.57
2017-05-18T09:31:16.555Z,60.21
2017-05-18T09:32:25.782Z,59.43
2017-05-18T09:33:34.688Z,59.43
2017-05-18T09:34:44.570Z,60.4
2017-05-18T09:35:53.798Z,59.91
2017-05-18T09:37:02.700Z,59.91
2017-05-18T09:38:12.260Z,59.72
2017-05-18T09:39:21.166Z,59.53
2017-05-18T09:40:30.728Z,59.33
2017-05-18T09:41:39.932Z,59.23
2017-05-18T09:42:48.836Z,59.53
2017-05-18T09:43:57.736Z,59.43
2017-05-18T09:45:06.962Z,60.11
2017-05-18T09:46:16.195Z,59.53
2017-05-18T09:47:25.475Z,59.33
2017-05-18T09:48:34.382Z,59.14
2017-05-18T09:49:43.937Z,59.53
2017-05-18T09:50:53.170Z,59.82
2017-05-18T09:52:02.074Z,60.3
2017-05-18T09:53:11.302Z,60.69
2017-05-18T09:54:20.534Z,60.21
2017-05-18T09:55:30.417Z,59.72
2017-05-18T09:56:39.650Z,60.59
2017-05-18T09:57:48.554Z,60.59
2017-05-18T09:58:58.315Z,60.47
2017-05-18T10:00:07.545Z,61.36
2017-05-18T10:01:16.456Z,61.92
2017-05-18T10:02:25.365Z,62.21
2017-05-18T10:03:34.918Z,62.53
2017-05-18T10:04:44.246Z,61.18
2017-05-18T10:05:53.478Z,61.18
2017-05-18T10:07:03.029Z,60.59
2017-05-18T10:08:11.934Z,61.33
2017-05-18T10:09:21.165Z,61.53
2017-05-18T10:10:31.097Z,61.15
2017-05-18T10:11:40.333Z,61.43
2017-05-18T10:12:49.571Z,60.88
2017-05-18T10:13:59.131Z,60.95
2017-05-18T10:15:08.358Z,61.92
2017-05-18T10:16:17.412Z,61.33
2017-05-18T10:17:26.320Z,60.59
2017-05-18T10:18:35.555Z,61.18
2017-05-18T10:19:45.110Z,61.27
2017-05-18T10:20:54.013Z,61.72
2017-05-18T10:22:03.722Z,61.95
2017-05-18T10:23:12.634Z,60.78
2017-05-18T10:24:22.246Z,61.27
2017-05-18T10:25:31.796Z,60.98
2017-05-18T10:26:41.025Z,61.24
2017-05-18T10:27:50.654Z,61.56
2017-05-18T10:28:59.893Z,62.01
2017-05-18T10:30:09.125Z,61.92
2017-05-18T10:31:18.025Z,62.4
2017-05-18T10:32:27.260Z,62.24
2017-05-18T10:33:36.786Z,61.27
2017-05-18T10:34:46.015Z,60.69
2017-05-18T10:35:54.923Z,61.56
2017-05-18T10:37:03.839Z,61.36
2017-05-18T10:38:13.074Z,60.98
2017-05-18T10:39:22.028Z,60.5
2017-05-18T10:40:31.259Z,60.01
2017-05-18T10:41:40.488Z,60.78
2017-05-18T10:42:49.393Z,59.91
2017-05-18T10:43:58.628Z,61.18
2017-05-18T10:45:08.331Z,60.69
2017-05-18T10:46:17.233Z,60.98
2017-05-18T10:47:26.464Z,61.27
2017-05-18T10:48:35.775Z,60.5
2017-05-18T10:49:45.329Z,60.21
2017-05-18T10:50:54.492Z,60.78
2017-05-18T10:52:03.397Z,60.69
2017-05-18T10:53:12.307Z,60.98
2017-05-18T10:54:21.535Z,60.85
2017-05-18T10:55:31.104Z,61.08
2017-05-18T10:56:40.383Z,60.88
2017-05-18T10:57:49.614Z,61.24
2017-05-18T10:58:58.852Z,62.14
2017-05-18T11:00:08.092Z,62.24
2017-05-18T11:01:16.995Z,61.85
2017-05-18T11:02:26.599Z,61.56
2017-05-18T11:03:35.557Z,59.82
2017-05-18T11:04:45.117Z,60.59
2017-05-18T11:05:54.433Z,61.08
2017-05-18T11:07:03.669Z,60.78
2017-05-18T11:08:13.153Z,59.56
2017-05-18T11:09:23.409Z,59.91
2017-05-18T11:10:32.993Z,59.75
2017-05-18T11:11:42.605Z,60.11
2017-05-18T11:12:51.852Z,60.4
2017-05-18T11:14:01.439Z,60.78
2017-05-18T11:15:10.995Z,61.18
2017-05-18T11:16:20.579Z,60.69
2017-05-18T11:17:30.141Z,60.11
2017-05-18T11:18:39.374Z,60.78
2017-05-18T11:19:49.333Z,61.08
2017-05-18T11:20:58.239Z,61.36
2017-05-18T11:22:07.142Z,61.08
2017-05-18T11:23:16.071Z,60.59
2017-05-18T11:24:25.012Z,60.4
2017-05-18T11:25:34.649Z,60.69
2017-05-18T11:26:43.967Z,59.53
2017-05-18T11:27:53.199Z,60.5
2017-05-18T11:29:02.441Z,60.98
2017-05-18T11:30:12.007Z,60.69
2017-05-18T11:31:21.073Z,60.69
2017-05-18T11:32:30.303Z,61.76
2017-05-18T11:33:39.306Z,62.24
2017-05-18T11:34:48.235Z,62.63
2017-05-18T11:35:57.150Z,63.49
2017-05-18T11:37:06.311Z,63.21
2017-05-18T11:38:15.290Z,63.79
2017-05-18T11:39:24.857Z,63.31
2017-05-18T11:40:34.144Z,63.79
2017-05-18T11:41:43.377Z,63.01
2017-05-18T11:42:52.767Z,63.98
2017-05-18T11:44:02.324Z,63.79
2017-05-18T11:45:11.229Z,64.07
2017-05-18T11:46:20.139Z,64.37
2017-05-18T11:47:29.043Z,64.04
2017-05-18T11:48:38.437Z,64.04
2017-05-18T11:49:48.326Z,64.17
2017-05-18T11:50:57.560Z,64.27
2017-05-18T11:52:07.113Z,63.98
2017-05-18T11:53:16.350Z,63.98
2017-05-18T11:54:26.021Z,63.79
2017-05-18T11:55:35.285Z,63.69
2017-05-18T11:56:44.581Z,63.79
2017-05-18T11:57:53.493Z,63.11
2017-05-18T11:59:03.049Z,63.31
2017-05-18T12:00:12.059Z,63.21
2017-05-18T12:01:20.962Z,63.72
2017-05-18T12:02:29.877Z,63.14
2017-05-18T12:03:38.788Z,63.14
2017-05-18T12:04:48.346Z,63.72
2017-05-18T12:05:57.958Z,63.89
2017-05-18T12:07:06.864Z,64.47
2017-05-18T12:08:16.092Z,63.98
2017-05-18T12:09:24.997Z,63.98
2017-05-18T12:10:34.879Z,64.27
2017-05-18T12:11:43.790Z,64.85
2017-05-18T12:12:53.031Z,64.37
2017-05-18T12:14:02.619Z,64.66
2017-05-18T12:15:11.853Z,64.72
2017-05-18T12:16:21.082Z,64.82
2017-05-18T12:17:30.757Z,65.4
2017-05-18T12:18:39.997Z,65.88
2017-05-18T12:19:49.231Z,65.56
2017-05-18T12:20:58.146Z,65.01
2017-05-18T12:22:07.374Z,65.69
2017-05-18T12:23:17.005Z,65.79
2017-05-18T12:24:26.236Z,65.4
2017-05-18T12:25:35.792Z,65.69
2017-05-18T12:26:45.018Z,65.79
2017-05-18T12:27:53.933Z,66.56
2017-05-18T12:29:03.283Z,66.17
2017-05-18T12:30:13.530Z,66.37
2017-05-18T12:31:22.439Z,66.47
2017-05-18T12:32:31.436Z,65.88
2017-05-18T12:33:40.718Z,65.79
2017-05-18T12:34:49.994Z,65.82
2017-05-18T12:35:59.323Z,66.47
2017-05-18T12:37:08.881Z,66.56
2017-05-18T12:38:17.852Z,66.72
2017-05-18T12:39:27.091Z,66.53
2017-05-18T12:40:36.332Z,66.82
2017-05-18T12:41:45.883Z,66.91
2017-05-18T12:42:54.796Z,66.33
2017-05-18T12:44:03.728Z,66.91
2017-05-18T12:45:12.677Z,66.37
2017-05-18T12:46:21.632Z,66.08
2017-05-18T12:47:30.868Z,65.4
2017-05-18T12:48:40.429Z,64.85
2017-05-18T12:49:49.660Z,64.47
2017-05-18T12:50:59.222Z,63.69
2017-05-18T12:52:08.506Z,63.59
2017-05-18T12:53:17.423Z,63.4
2017-05-18T12:54:26.992Z,63.24
2017-05-18T12:55:36.319Z,62.75
2017-05-18T12:56:45.903Z,62.46
2017-05-18T12:57:55.201Z,63.01
2017-05-18T12:59:04.125Z,63.04
2017-05-18T13:00:13.120Z,63.01
2017-05-18T13:01:22.037Z,63.21
2017-05-18T13:02:30.955Z,62.92
2017-05-18T13:03:40.400Z,63.98
2017-05-18T13:04:49.679Z,62.53
2017-05-18T13:05:59.270Z,62.63
2017-05-18T13:07:08.210Z,62.72
2017-05-18T13:08:17.455Z,62.34
2017-05-18T13:09:26.737Z,62.98
2017-05-18T13:10:35.644Z,63.08
2017-05-18T13:11:44.553Z,63.18
2017-05-18T13:12:53.471Z,63.21
2017-05-18T13:14:03.075Z,63.11
2017-05-18T13:15:12.896Z,62.72
2017-05-18T13:16:21.810Z,62.82
2017-05-18T13:17:31.054Z,62.63
2017-05-18T13:18:39.965Z,62.04
2017-05-18T13:19:49.849Z,62.43
2017-05-18T13:20:59.134Z,62.34
2017-05-18T13:22:08.103Z,61.76
2017-05-18T13:23:17.012Z,61.95
2017-05-18T13:24:25.958Z,61.59
2017-05-18T13:25:35.531Z,60.72
2017-05-18T13:26:44.497Z,60.55
2017-05-18T13:27:53.410Z,59.69
2017-05-18T13:29:02.340Z,60.39
2017-05-18T13:30:11.651Z,59.61
2017-05-18T13:31:20.625Z,59.74
2017-05-18T13:32:29.839Z,58.77
2017-05-18T13:33:39.072Z,58.74
2017-05-18T13:34:48.643Z,57.39
2017-05-18T13:35:57.884Z,57.51
2017-05-18T13:37:07.447Z,57.68
2017-05-18T13:38:16.780Z,58.36
2017-05-18T13:39:26.021Z,59.03
2017-05-18T13:40:35.585Z,59
2017-05-18T13:41:44.813Z,58.91
2017-05-18T13:42:54.049Z,59.17
2017-05-18T13:44:03.671Z,59.39
2017-05-18T13:45:12.592Z,58.91
2017-05-18T13:46:21.827Z,58.04
2017-05-18T13:47:30.744Z,58.06
2017-05-18T13:48:39.680Z,58.36
2017-05-18T13:49:49.316Z,57.97
2017-05-18T13:50:58.231Z,57.39
2017-05-18T13:52:07.143Z,57.97
2017-05-18T13:53:16.058Z,57.03
2017-05-18T13:54:25.621Z,57.51
2017-05-18T13:55:35.013Z,58.16
2017-05-18T13:56:43.928Z,58.55
2017-05-18T13:57:53.166Z,57.87
2017-05-18T13:59:02.727Z,56.9
2017-05-18T14:00:11.634Z,57.22
2017-05-18T14:01:21.276Z,57.42
2017-05-18T14:02:30.190Z,58.26
2017-05-18T14:03:39.113Z,58.06
2017-05-18T14:04:48.359Z,57.78
2017-05-18T14:05:57.598Z,57.29
2017-05-18T14:07:06.838Z,56.9
2017-05-18T14:08:15.755Z,57.19
2017-05-18T14:09:24.998Z,57.48
2017-05-18T14:10:33.907Z,57.58
2017-05-18T14:11:42.818Z,57.58
2017-05-18T14:12:52.056Z,57.87
2017-05-18T14:14:01.286Z,58.06
2017-05-18T14:15:10.207Z,58.16
2017-05-18T14:16:19.118Z,58.04
2017-05-18T14:17:28.358Z,58.36
2017-05-18T14:18:37.915Z,58.14
2017-05-18T14:19:47.152Z,58.42
2017-05-18T14:20:57.048Z,58.45
2017-05-18T14:22:06.340Z,58.91
2017-05-18T14:23:15.246Z,59.39
2017-05-18T14:24:24.476Z,60.46
2017-05-18T14:25:33.382Z,60.43
2017-05-18T14:26:42.319Z,60.82
2017-05-18T14:27:51.604Z,61.11
2017-05-18T14:29:00.841Z,61.49
2017-05-18T14:30:10.725Z,61.59
2017-05-18T14:31:19.958Z,61.98
2017-05-18T14:32:29.340Z,61.01
2017-05-18T14:33:38.568Z,61.59
2017-05-18T14:34:47.485Z,61.88
2017-05-18T14:35:56.404Z,62.17
2017-05-18T14:37:05.639Z,61.3
2017-05-18T14:38:14.977Z,60.82
2017-05-18T14:39:24.228Z,61.3
2017-05-18T14:40:33.470Z,62.07
2017-05-18T14:41:42.384Z,61.79
2017-05-18T14:42:51.938Z,62.17
2017-05-18T14:44:01.423Z,62.66
2017-05-18T14:45:10.654Z,62.66
2017-05-18T14:46:19.881Z,62.75
2017-05-18T14:47:29.120Z,62.95
2017-05-18T14:48:38.352Z,62.63
2017-05-18T14:49:47.733Z,62.53
2017-05-18T14:50:57.615Z,62.63
2017-05-18T14:52:06.524Z,62.53
2017-05-18T14:53:15.498Z,63.21
2017-05-18T14:54:24.732Z,63.01
2017-05-18T14:55:34.285Z,62.34